Time;durP1;ratioP1;P1;durP2;ratioP2;P2;SDS_P1;SDS_P2;PMS_P1;PMS_P2;Temp;Humidity;BMP_temperature;BMP_pressure;BME280_temperature;BME280_humidity;BME280_pressure;Samples;Min_cycle;Max_cycle;Signal;HPM_P1;HPM_P2
2022/06/09 00:00:43;;;;;;;8.02;7.32;;;;;;;17.53;81.94;94344.41;5077915;28;20189;-70
2022/06/09 00:03:15;;;;;;;8.50;7.60;;;;;;;17.53;82.17;94348.00;5077980;28;20189;-70
2022/06/09 00:05:42;;;;;;;9.88;8.52;;;;;;;17.54;81.81;94340.44;5077739;28;20204;-69
2022/06/09 00:08:09;;;;;;;8.27;7.43;;;;;;;17.57;82.09;94334.00;5076831;28;20189;-69
2022/06/09 00:10:39;;;;;;;8.57;7.68;;;;;;;17.57;81.61;94336.81;5077773;28;20193;-70
2022/06/09 00:13:06;;;;;;;7.68;6.95;;;;;;;17.53;81.23;94348.00;5077692;28;20254;-70
2022/06/09 00:15:33;;;;;;;7.95;7.05;;;;;;;17.50;81.60;94346.06;5076644;28;20198;-70
2022/06/09 00:18:01;;;;;;;8.30;6.68;;;;;;;17.48;81.94;94340.09;5076838;28;20189;-70
2022/06/09 00:20:28;;;;;;;7.95;7.18;;;;;;;17.50;82.02;94334.91;5077247;28;20182;-70
2022/06/09 00:22:55;;;;;;;9.27;6.90;;;;;;;17.51;82.18;94338.47;5077395;28;20216;-70
2022/06/09 00:25:22;;;;;;;8.05;7.25;;;;;;;17.51;82.48;94336.47;5077375;28;20266;-70
2022/06/09 00:27:48;;;;;;;8.40;6.97;;;;;;;17.50;82.28;94329.34;5077441;28;20242;-70
2022/06/09 00:30:17;;;;;;;10.13;7.20;;;;;;;17.49;82.32;94326.94;5076716;28;20213;-70
2022/06/09 00:32:44;;;;;;;8.20;7.32;;;;;;;17.47;82.45;94324.59;5076554;28;20201;-70
2022/06/09 00:35:13;;;;;;;8.48;7.65;;;;;;;17.46;82.35;94325.75;5076965;28;20185;-70
2022/06/09 00:37:39;;;;;;;7.82;7.13;;;;;;;17.48;82.19;94320.59;5076314;28;20189;-70
2022/06/09 00:40:09;;;;;;;8.52;7.10;;;;;;;17.48;82.28;94317.78;5076391;28;20205;-70
2022/06/09 00:42:36;;;;;;;7.88;7.18;;;;;;;17.48;81.82;94319.78;5076537;28;20194;-70
2022/06/09 00:45:25;;;;;;;9.63;8.63;;;;;;;17.46;81.72;94311.81;5077021;28;20185;-70
2022/06/09 00:47:53;;;;;;;9.68;8.73;;;;;;;17.45;81.55;94318.63;5077025;28;20189;-70
2022/06/09 00:50:23;;;;;;;10.13;9.05;;;;;;;17.45;81.64;94318.63;5076372;28;20641;-70
2022/06/09 00:52:54;;;;;;;11.07;10.00;;;;;;;17.44;81.91;94314.25;5076870;28;20208;-70
2022/06/09 00:55:23;;;;;;;11.88;9.98;;;;;;;17.41;81.64;94319.88;5076804;28;20189;-70
2022/06/09 00:57:53;;;;;;;9.32;8.43;;;;;;;17.39;81.81;94311.91;5076134;28;20266;-70
2022/06/09 01:00:22;;;;;;;9.05;8.23;;;;;;;17.38;81.70;94313.13;5076752;28;20247;-70
2022/06/09 01:02:50;;;;;;;10.45;8.88;;;;;;;17.33;81.79;94313.59;5075560;28;20200;-69
2022/06/09 01:05:19;;;;;;;9.45;8.50;;;;;;;17.30;81.93;94328.34;5075683;28;20197;-69
2022/06/09 01:07:49;;;;;;;12.27;10.73;;;;;;;17.27;82.45;94318.81;5076677;28;20200;-69
2022/06/09 01:10:16;;;;;;;12.57;11.27;;;;;;;17.28;82.53;94306.47;5076072;28;20209;-69
2022/06/09 01:12:44;;;;;;;11.02;9.65;;;;;;;17.27;82.37;94310.44;5076978;28;20196;-69
2022/06/09 01:15:13;;;;;;;10.15;8.10;;;;;;;17.24;81.86;94318.84;5076464;28;20189;-70
2022/06/09 01:17:48;;;;;;;9.38;8.43;;;;;;;17.23;82.16;94311.69;5075131;28;20197;-70
2022/06/09 01:20:28;;;;;;;10.27;8.05;;;;;;;17.23;81.93;94308.91;5075226;28;20267;-70
2022/06/09 01:23:27;;;;;;;9.00;8.10;;;;;;;17.24;81.97;94316.06;5076117;28;20598;-70
2022/06/09 01:26:16;;;;;;;8.25;7.45;;;;;;;17.23;82.00;94312.50;5075514;28;20254;-70
2022/06/09 01:29:01;;;;;;;10.15;7.90;;;;;;;17.22;81.68;94301.75;5075039;28;20211;-70
2022/06/09 01:31:32;;;;;;;7.78;6.97;;;;;;;17.21;81.88;94311.31;5074450;28;20231;-70
2022/06/09 01:34:17;;;;;;;9.43;8.50;;;;;;;17.22;81.79;94307.34;5076090;28;20200;-71
2022/06/09 01:36:47;;;;;;;8.90;7.68;;;;;;;17.23;82.28;94308.91;5075277;28;20295;-71
2022/06/09 01:39:14;;;;;;;8.55;7.60;;;;;;;17.21;82.30;94295.41;5075959;28;20243;-70
2022/06/09 01:41:48;;;;;;;10.00;8.77;;;;;;;17.20;81.79;94291.03;5074986;28;20254;-70
2022/06/09 01:44:16;;;;;;;9.60;8.45;;;;;;;17.22;82.29;94293.41;5075450;28;20224;-70
2022/06/09 01:46:46;;;;;;;10.52;9.43;;;;;;;17.19;82.09;94294.22;5074585;28;20197;-70
2022/06/09 01:49:16;;;;;;;12.20;9.77;;;;;;;17.18;82.40;94292.66;5074897;28;20522;-70
2022/06/09 01:51:44;;;;;;;13.05;10.65;;;;;;;17.18;82.83;94299.00;5075689;28;20531;-70
2022/06/09 01:54:15;;;;;;;11.25;10.02;;;;;;;17.20;83.09;94309.75;5075393;28;20513;-70
2022/06/09 01:56:45;;;;;;;11.32;10.20;;;;;;;17.21;82.79;94305.75;5075341;28;20193;-70
2022/06/09 01:59:16;;;;;;;11.65;10.45;;;;;;;17.22;82.55;94308.13;5074915;28;20516;-70
2022/06/09 02:01:46;;;;;;;12.68;11.38;;;;;;;17.24;82.63;94293.75;5075255;28;20185;-70
2022/06/09 02:04:16;;;;;;;14.55;10.50;;;;;;;17.25;82.70;94300.94;5075785;28;20290;-70
2022/06/09 02:06:43;;;;;;;11.02;9.93;;;;;;;17.24;82.31;94300.13;5074266;28;20212;-70
2022/06/09 02:09:11;;;;;;;11.85;10.43;;;;;;;17.23;82.61;94300.56;5074615;28;20193;-70
2022/06/09 02:11:47;;;;;;;11.38;9.95;;;;;;;17.22;82.62;94298.97;5074175;28;20275;-71
2022/06/09 02:14:14;;;;;;;12.25;10.73;;;;;;;17.22;81.44;94299.75;5075180;28;20184;-70
2022/06/09 02:16:41;;;;;;;11.95;10.75;;;;;;;17.22;82.33;94296.19;5074263;28;20246;-70
2022/06/09 02:19:09;;;;;;;13.23;11.40;;;;;;;17.20;82.91;94301.38;5074462;28;20204;-70
2022/06/09 02:21:37;;;;;;;12.40;11.18;;;;;;;17.19;82.06;94297.81;5075060;28;20219;-70
2022/06/09 02:24:04;;;;;;;12.10;10.82;;;;;;;17.21;82.25;94308.53;5075158;28;20298;-70
2022/06/09 02:26:31;;;;;;;12.27;11.07;;;;;;;17.20;82.08;94307.75;5074610;28;20227;-71
2022/06/09 02:28:58;;;;;;;12.93;11.63;;;;;;;17.19;81.63;94305.38;5074279;28;20220;-71
2022/06/09 02:31:25;;;;;;;12.18;10.98;;;;;;;17.17;82.16;94305.78;5075052;28;20216;-71
2022/06/09 02:33:54;;;;;;;12.70;11.15;;;;;;;17.16;81.83;94315.34;5075231;28;20243;-71
2022/06/09 02:36:22;;;;;;;12.95;11.65;;;;;;;17.14;82.61;94314.97;5075144;28;20196;-71
2022/06/09 02:38:49;;;;;;;13.85;12.45;;;;;;;17.12;82.10;94316.59;5074210;28;20189;-70
2022/06/09 02:41:16;;;;;;;13.88;12.48;;;;;;;17.10;81.91;94308.63;5075075;28;20193;-70
2022/06/09 02:43:43;;;;;;;13.85;11.63;;;;;;;17.07;82.46;94318.63;5074180;28;20205;-70
2022/06/09 02:46:09;;;;;;;14.00;11.80;;;;;;;17.08;83.00;94319.41;5075150;28;20255;-72
2022/06/09 02:48:37;;;;;;;13.50;12.05;;;;;;;17.08;82.97;94320.19;5074219;28;20250;-70
2022/06/09 02:51:26;;;;;;;13.38;11.98;;;;;;;17.11;82.78;94323.38;5074231;28;20217;-70
2022/06/09 02:53:53;;;;;;;13.48;12.05;;;;;;;17.12;82.91;94319.38;5073919;28;20554;-70
2022/06/09 02:56:20;;;;;;;13.23;11.82;;;;;;;17.11;82.54;94315.03;5074998;28;20254;-70
2022/06/09 02:58:47;;;;;;;14.65;13.00;;;;;;;17.10;82.20;94319.78;5074430;28;20262;-71
2022/06/09 03:01:13;;;;;;;13.00;11.70;;;;;;;17.10;81.86;94319.78;5075075;28;20261;-71
2022/06/09 03:03:40;;;;;;;13.35;11.48;;;;;;;17.10;81.77;94317.00;5074052;28;20196;-71
2022/06/09 03:06:08;;;;;;;12.27;11.00;;;;;;;17.09;81.20;94313.41;5074839;28;20617;-72
2022/06/09 03:08:36;;;;;;;14.23;11.30;;;;;;;17.09;81.80;94319.00;5075007;28;20254;-72
2022/06/09 03:11:03;;;;;;;15.38;13.77;;;;;;;17.09;81.85;94316.19;5074810;28;20266;-72
2022/06/09 03:13:30;;;;;;;15.40;12.27;;;;;;;17.07;81.90;94321.41;5073922;28;20186;-72
2022/06/09 03:15:57;;;;;;;15.90;12.73;;;;;;;17.07;82.47;94317.84;5074814;28;20182;-72
2022/06/09 03:18:24;;;;;;;14.15;12.60;;;;;;;17.06;82.27;94319.03;5074766;28;20186;-72
2022/06/09 03:20:51;;;;;;;14.45;12.95;;;;;;;17.05;82.54;94317.44;5075567;28;20242;-72
2022/06/09 03:23:18;;;;;;;14.27;12.80;;;;;;;17.05;82.54;94320.22;5077360;28;20237;-72
2022/06/09 03:25:46;;;;;;;15.90;14.25;;;;;;;17.07;82.31;94315.06;5077679;28;20197;-71
2022/06/09 03:28:13;;;;;;;15.20;13.60;;;;;;;17.06;82.45;94322.59;5077595;28;20635;-72
2022/06/09 03:30:39;;;;;;;16.73;14.30;;;;;;;17.08;82.39;94319.41;5077818;28;20208;-72
2022/06/09 03:33:06;;;;;;;17.23;14.93;;;;;;;17.09;82.69;94318.19;5078502;28;20250;-71
2022/06/09 03:35:33;;;;;;;16.05;13.68;;;;;;;17.09;82.65;94327.34;5077352;28;20540;-71
2022/06/09 03:38:00;;;;;;;16.20;14.23;;;;;;;17.10;82.21;94322.56;5078456;28;20190;-72
2022/06/09 03:40:28;;;;;;;15.95;13.85;;;;;;;17.12;82.49;94322.94;5076752;28;20208;-71
2022/06/09 03:42:56;;;;;;;16.83;14.38;;;;;;;17.11;81.86;94315.81;5077302;28;20219;-74
2022/06/09 03:45:23;;;;;;;19.73;14.93;;;;;;;17.12;82.25;94325.75;5077865;28;20258;-71
2022/06/09 03:47:50;;;;;;;20.58;15.23;;;;;;;17.12;81.42;94327.75;5077190;28;20262;-75
2022/06/09 03:50:20;;;;;;;18.83;15.07;;;;;;;17.09;81.46;94324.56;5077776;28;20185;-72
2022/06/09 03:52:48;;;;;;;19.10;14.45;;;;;;;17.12;81.81;94320.16;5078210;28;20181;-75
2022/06/09 03:55:16;;;;;;;19.90;16.00;;;;;;;17.12;80.98;94319.38;5077341;28;20197;-76
2022/06/09 03:57:43;;;;;;;16.63;14.20;;;;;;;17.12;81.28;94322.16;5078110;28;20185;-73
2022/06/09 04:00:16;;;;;;;17.88;14.68;;;;;;;17.13;81.52;94320.94;5077195;28;20277;-70
2022/06/09 04:02:43;;;;;;;15.65;13.30;;;;;;;17.11;80.88;94321.38;5077991;28;20250;-71
2022/06/09 04:05:10;;;;;;;15.32;13.65;;;;;;;17.11;80.85;94321.38;5077861;28;20626;-71
2022/06/09 04:07:37;;;;;;;17.27;14.57;;;;;;;17.09;80.92;94319.00;5076905;28;20662;-71
2022/06/09 04:10:04;;;;;;;17.20;14.18;;;;;;;17.08;81.75;94314.63;5077955;28;20186;-71
2022/06/09 04:12:31;;;;;;;18.67;14.80;;;;;;;17.08;81.01;94317.41;5076615;28;20209;-71
2022/06/09 04:14:58;;;;;;;16.48;14.77;;;;;;;17.09;81.35;94320.97;5076742;28;20224;-71
2022/06/09 04:17:27;;;;;;;16.63;13.25;;;;;;;17.12;81.69;94317.38;5077608;28;20197;-71
2022/06/09 04:19:53;;;;;;;18.58;14.50;;;;;;;17.13;81.55;94318.16;5077268;28;20598;-71
2022/06/09 04:22:20;;;;;;;18.70;14.85;;;;;;;17.11;81.96;94315.81;5076597;28;20205;-71
2022/06/09 04:24:47;;;;;;;16.75;13.88;;;;;;;17.13;82.12;94324.53;5076173;28;20241;-71
2022/06/09 04:27:14;;;;;;;17.23;14.60;;;;;;;17.16;81.81;94315.34;5076654;28;20262;-71
2022/06/09 04:29:40;;;;;;;16.15;14.13;;;;;;;17.16;81.39;94314.56;5077318;28;20262;-71
2022/06/09 04:32:08;;;;;;;16.17;14.20;;;;;;;17.19;81.35;94310.94;5075691;28;20209;-71
2022/06/09 04:34:36;;;;;;;17.45;14.88;;;;;;;17.19;81.81;94314.53;5077448;28;20194;-71
2022/06/09 04:37:03;;;;;;;18.02;15.35;;;;;;;17.19;81.36;94322.09;5076422;28;20193;-71
2022/06/09 04:39:30;;;;;;;17.02;15.07;;;;;;;17.20;81.67;94312.53;5076849;28;20185;-71
2022/06/09 04:41:56;;;;;;;16.48;14.77;;;;;;;17.21;81.55;94311.31;5076290;28;20223;-71
2022/06/09 04:44:23;;;;;;;15.65;13.90;;;;;;;17.22;81.31;94313.69;5076969;28;20216;-71
2022/06/09 04:46:50;;;;;;;16.77;14.55;;;;;;;17.24;81.28;94313.28;5076368;28;20208;-71
2022/06/09 04:49:16;;;;;;;16.42;13.77;;;;;;;17.24;81.20;94304.91;5076185;28;20212;-71
2022/06/09 04:51:44;;;;;;;14.68;12.98;;;;;;;17.25;81.11;94306.50;5076966;28;20217;-71
2022/06/09 04:54:11;;;;;;;15.15;13.45;;;;;;;17.26;81.53;94311.66;5076670;28;20581;-71
2022/06/09 04:56:38;;;;;;;16.27;14.57;;;;;;;17.27;80.94;94309.66;5076187;28;20258;-71
2022/06/09 04:59:05;;;;;;;14.73;12.70;;;;;;;17.23;79.68;94318.06;5076534;28;20193;-71
2022/06/09 05:01:31;;;;;;;15.02;13.40;;;;;;;17.22;80.00;94305.34;5076815;28;20189;-71
2022/06/09 05:03:59;;;;;;;15.95;13.55;;;;;;;17.23;80.22;94306.91;5076695;28;20189;-71
2022/06/09 05:06:27;;;;;;;15.15;13.57;;;;;;;17.23;80.45;94300.56;5076867;28;20247;-71
2022/06/09 05:08:56;;;;;;;14.95;13.30;;;;;;;17.22;80.40;94315.69;5076644;28;20185;-71
2022/06/09 05:11:23;;;;;;;14.82;13.32;;;;;;;17.21;80.57;94311.31;5076524;28;20213;-71
2022/06/09 05:13:50;;;;;;;13.75;12.35;;;;;;;17.19;80.54;94311.75;5076540;28;20194;-71
2022/06/09 05:16:18;;;;;;;13.82;12.13;;;;;;;17.20;80.16;94293.81;5076559;28;20231;-71
2022/06/09 05:18:45;;;;;;;15.18;12.63;;;;;;;17.21;80.89;94300.16;5076480;28;20258;-71
2022/06/09 05:21:11;;;;;;;14.50;12.95;;;;;;;17.24;81.11;94310.50;5075249;28;20199;-71
2022/06/09 05:23:38;;;;;;;14.57;12.65;;;;;;;17.29;80.80;94299.69;5076213;28;20305;-71
2022/06/09 05:26:07;;;;;;;13.73;12.15;;;;;;;17.32;81.11;94301.66;5075057;28;20200;-72
2022/06/09 05:28:35;;;;;;;13.80;12.30;;;;;;;17.35;81.30;94308.38;5075024;28;20201;-71
2022/06/09 05:31:01;;;;;;;13.30;11.90;;;;;;;17.36;81.11;94306.38;5075209;28;20266;-71
2022/06/09 05:33:28;;;;;;;13.95;12.23;;;;;;;17.38;80.41;94303.97;5075302;28;20196;-71
2022/06/09 05:35:55;;;;;;;12.88;11.30;;;;;;;17.42;80.30;94299.16;5075328;28;20204;-71
2022/06/09 05:46:37;;;;;;;12.75;11.43;;;;;;;17.56;78.20;94296.19;5074616;28;20211;-71
2022/06/09 05:49:04;;;;;;;12.70;11.02;;;;;;;17.58;77.87;94307.72;5075854;28;20245;-71
2022/06/09 05:51:31;;;;;;;12.48;11.05;;;;;;;17.60;78.60;94307.31;5075714;28;20228;-71
2022/06/09 05:53:58;;;;;;;13.63;11.75;;;;;;;17.61;78.91;94304.13;5075963;28;20243;-71
2022/06/09 05:56:26;;;;;;;13.82;11.55;;;;;;;17.64;79.38;94294.88;5075739;28;20193;-71
2022/06/09 05:58:53;;;;;;;13.95;12.55;;;;;;;17.70;79.52;94301.59;5074949;28;20208;-71
2022/06/09 06:01:20;;;;;;;14.82;12.88;;;;;;;17.75;78.96;94294.75;5074681;28;20196;-71
2022/06/09 06:03:46;;;;;;;13.40;12.00;;;;;;;17.78;79.33;94297.53;5075124;28;20197;-71
2022/06/09 06:08:57;;;;;;;15.45;13.85;;;;;;;17.84;80.78;94300.66;5075222;28;20170;-71
2022/06/09 06:11:26;;;;;;;15.27;12.57;;;;;;;17.82;80.78;94303.06;5075439;28;20205;-71
2022/06/09 06:13:54;;;;;;;15.15;13.60;;;;;;;17.78;79.69;94297.53;5075201;28;20530;-71
2022/06/09 06:16:21;;;;;;;14.77;13.27;;;;;;;17.76;80.16;94294.38;5075118;28;20201;-71
2022/06/09 06:18:48;;;;;;;15.07;13.30;;;;;;;17.75;79.16;94292.78;5074501;28;20192;-71
2022/06/09 06:21:15;;;;;;;14.18;12.10;;;;;;;17.78;79.53;94285.59;5075355;28;20189;-71
2022/06/09 06:23:42;;;;;;;14.73;12.57;;;;;;;17.83;79.63;94282.34;5075412;28;20241;-71
2022/06/09 06:26:10;;;;;;;15.23;12.73;;;;;;;17.83;79.88;94276.78;5075363;28;20185;-71
2022/06/09 06:28:39;;;;;;;14.73;13.23;;;;;;;17.82;80.02;94286.34;5075327;28;20189;-71
2022/06/09 06:31:07;;;;;;;15.40;13.07;;;;;;;17.85;79.42;94284.72;5075154;28;20193;-71
2022/06/09 06:33:34;;;;;;;14.57;13.18;;;;;;;17.86;78.88;94284.28;5075191;28;20189;-71
2022/06/09 06:36:01;;;;;;;14.77;13.18;;;;;;;17.86;79.58;94284.28;5075051;28;20201;-71
2022/06/09 06:38:28;;;;;;;14.77;13.35;;;;;;;17.84;79.72;94283.94;5074644;28;20197;-71
2022/06/09 06:40:55;;;;;;;15.23;13.73;;;;;;;17.84;79.63;94278.34;5074304;28;20208;-71
2022/06/09 06:43:22;;;;;;;15.52;13.68;;;;;;;17.85;78.48;94273.56;5074154;28;20208;-71
2022/06/09 06:45:51;;;;;;;14.48;13.00;;;;;;;17.86;78.99;94267.56;5075115;28;20276;-71
2022/06/09 06:48:18;;;;;;;14.80;13.25;;;;;;;17.89;79.95;94271.50;5074373;28;20201;-71
2022/06/09 06:50:45;;;;;;;16.15;13.75;;;;;;;17.90;79.21;94273.06;5074489;28;20193;-71
2022/06/09 06:53:12;;;;;;;14.88;13.32;;;;;;;17.91;79.31;94274.69;5074050;28;20227;-71
2022/06/09 06:55:39;;;;;;;16.23;13.90;;;;;;;17.92;79.25;94277.03;5075957;28;20224;-71
2022/06/09 06:58:06;;;;;;;15.13;13.73;;;;;;;17.96;79.19;94275.00;5078716;28;20262;-71
2022/06/09 07:00:33;;;;;;;14.32;12.82;;;;;;;18.03;78.65;94274.88;5079328;28;20189;-71
2022/06/09 07:03:01;;;;;;;13.70;12.27;;;;;;;18.08;77.15;94270.81;5078685;28;20239;-71
2022/06/09 07:05:28;;;;;;;15.45;13.85;;;;;;;18.12;76.65;94268.00;5078146;28;20201;-71
2022/06/09 07:07:56;;;;;;;13.60;12.27;;;;;;;18.16;77.19;94274.34;5078997;28;20181;-71
2022/06/09 07:10:24;;;;;;;16.42;13.27;;;;;;;18.20;77.46;94275.84;5078247;28;20206;-71
2022/06/09 07:12:51;;;;;;;15.10;12.82;;;;;;;18.26;77.50;94270.56;5079048;28;20205;-72
2022/06/09 07:15:18;;;;;;;15.98;12.65;;;;;;;18.31;77.82;94272.13;5078021;28;20201;-71
2022/06/09 07:17:45;;;;;;;14.43;12.43;;;;;;;18.35;77.77;94261.69;5077843;28;20189;-71
2022/06/09 07:20:14;;;;;;;14.23;12.70;;;;;;;18.40;77.85;94264.75;5078085;28;20197;-71
2022/06/09 07:22:41;;;;;;;13.80;11.95;;;;;;;18.43;77.47;94263.94;5078989;28;20286;-71
2022/06/09 07:25:09;;;;;;;14.43;13.02;;;;;;;18.43;78.86;94258.34;5079024;28;20240;-71
2022/06/09 07:27:36;;;;;;;16.17;12.73;;;;;;;18.40;77.96;94261.19;5078688;28;20636;-71
2022/06/09 07:30:04;;;;;;;14.63;13.13;;;;;;;18.38;76.33;94250.47;5077568;28;20513;-71
2022/06/09 07:32:31;;;;;;;13.68;12.27;;;;;;;18.42;76.89;94264.38;5078002;28;20223;-71
2022/06/09 07:34:58;;;;;;;14.02;12.63;;;;;;;18.47;76.85;94258.28;5078105;28;20197;-71
2022/06/09 07:37:26;;;;;;;12.77;11.45;;;;;;;18.53;77.31;94251.81;5078701;28;20211;-71
2022/06/09 07:39:52;;;;;;;13.55;12.23;;;;;;;18.59;77.73;94252.13;5078878;28;20177;-71
2022/06/09 07:42:20;;;;;;;13.23;11.88;;;;;;;18.61;77.54;94246.88;5078724;28;20243;-71
2022/06/09 07:44:47;;;;;;;12.73;11.48;;;;;;;18.67;77.33;94245.19;5078306;28;20196;-71
2022/06/09 07:47:14;;;;;;;12.82;11.32;;;;;;;18.74;78.42;94250.69;5077865;28;20200;-71
2022/06/09 07:49:41;;;;;;;12.57;11.30;;;;;;;18.74;77.38;94236.72;5077453;28;20200;-71
2022/06/09 07:52:08;;;;;;;14.15;12.60;;;;;;;18.73;76.87;94240.72;5077580;28;20617;-71
2022/06/09 07:54:36;;;;;;;15.00;12.52;;;;;;;18.73;76.05;94235.13;5078514;28;20196;-71
2022/06/09 07:57:02;;;;;;;12.73;11.45;;;;;;;18.71;76.09;94231.97;5077996;28;20193;-71
2022/06/09 07:59:29;;;;;;;13.70;11.77;;;;;;;18.77;76.63;94232.28;5078111;28;20193;-71
2022/06/09 08:01:56;;;;;;;13.50;12.00;;;;;;;18.86;75.96;94232.53;5078329;28;20247;-71
2022/06/09 08:04:23;;;;;;;13.85;12.45;;;;;;;18.90;75.25;94222.06;5077348;28;20262;-71
2022/06/09 08:06:49;;;;;;;14.57;12.82;;;;;;;18.94;74.47;94228.38;5076300;28;20194;-71
2022/06/09 08:09:16;;;;;;;12.57;11.38;;;;;;;19.02;75.46;94222.66;5078016;28;20185;-71
2022/06/09 08:11:45;;;;;;;13.43;11.73;;;;;;;19.08;74.38;94223.75;5077383;28;20196;-71
2022/06/09 08:14:12;;;;;;;13.20;11.88;;;;;;;19.15;75.00;94218.03;5077450;28;20193;-71
2022/06/09 08:16:39;;;;;;;11.13;9.50;;;;;;;19.26;74.13;94217.81;5078057;28;20189;-70
2022/06/09 08:19:07;;;;;;;12.20;11.02;;;;;;;19.41;74.60;94217.09;5076749;28;20233;-70
2022/06/09 08:21:34;;;;;;;12.57;10.57;;;;;;;19.52;73.87;94216.88;5077059;28;20204;-70
2022/06/09 08:24:01;;;;;;;13.85;10.90;;;;;;;19.63;73.17;94213.88;5076624;28;20233;-71
2022/06/09 08:26:28;;;;;;;13.18;11.35;;;;;;;19.63;71.80;94209.06;5077666;28;20182;-70
2022/06/09 08:28:56;;;;;;;10.70;9.60;;;;;;;19.66;72.33;94213.03;5076887;28;20201;-70
2022/06/09 08:31:23;;;;;;;12.13;10.65;;;;;;;19.73;72.98;94201.69;5076908;28;20258;-70
2022/06/09 08:33:52;;;;;;;12.10;10.90;;;;;;;19.84;72.94;94207.81;5078189;28;20209;-70
2022/06/09 08:36:19;;;;;;;12.82;11.52;;;;;;;19.93;73.07;94204.41;5077762;28;20217;-70
2022/06/09 08:38:48;;;;;;;11.48;10.38;;;;;;;19.99;72.19;94201.91;5077618;28;20528;-70
2022/06/09 08:41:29;;;;;;;14.55;12.57;;;;;;;20.04;71.42;94195.78;5077844;28;20252;-70
2022/06/09 08:44:10;;;;;;;12.43;11.23;;;;;;;20.22;72.35;94203.75;5077055;28;20607;-70
2022/06/09 08:46:43;;;;;;;13.60;11.77;;;;;;;20.40;70.79;94193.69;5077695;28;20230;-70
2022/06/09 08:49:25;;;;;;;10.23;9.15;;;;;;;20.51;68.65;94198.28;5077737;28;20185;-70
2022/06/09 08:51:52;;;;;;;12.85;10.50;;;;;;;20.52;65.94;94194.28;5077374;28;20600;-71
2022/06/09 08:54:21;;;;;;;11.43;10.30;;;;;;;20.48;69.23;94196.31;5076590;28;20262;-71
2022/06/09 08:56:48;;;;;;;14.15;11.10;;;;;;;20.59;70.23;94192.09;5076232;28;20299;-71
2022/06/09 08:59:18;;;;;;;13.30;11.85;;;;;;;20.70;68.88;94186.22;5076838;28;20177;-71
2022/06/09 09:01:48;;;;;;;12.35;11.15;;;;;;;20.83;70.40;94180.66;5076694;28;20181;-71
2022/06/09 09:04:19;;;;;;;11.38;10.23;;;;;;;20.91;67.18;94166.03;5077204;28;20194;-71
2022/06/09 09:06:49;;;;;;;12.18;10.70;;;;;;;21.00;68.80;94162.59;5077445;28;20254;-71
2022/06/09 09:09:22;;;;;;;13.45;12.05;;;;;;;21.03;66.71;94167.31;5077080;28;20208;-71
2022/06/09 09:11:56;;;;;;;13.27;11.88;;;;;;;21.10;65.36;94167.13;5077254;28;20189;-71
2022/06/09 09:14:30;;;;;;;12.85;11.50;;;;;;;21.14;67.68;94164.22;5076300;28;20200;-71
2022/06/09 09:17:02;;;;;;;11.65;10.45;;;;;;;21.27;67.57;94167.03;5076837;28;20246;-71
2022/06/09 09:19:39;;;;;;;11.98;10.50;;;;;;;21.36;65.89;94170.81;5076193;28;20185;-71
2022/06/09 09:22:10;;;;;;;12.45;10.10;;;;;;;21.33;64.26;94159.66;5076831;28;20173;-71
2022/06/09 09:24:43;;;;;;;12.27;8.98;;;;;;;21.40;65.82;94153.88;5076326;28;20232;-71
2022/06/09 09:27:18;;;;;;;11.20;9.55;;;;;;;21.55;66.42;94148.63;5076197;28;20205;-71
2022/06/09 09:29:49;;;;;;;11.43;10.32;;;;;;;21.77;66.50;94154.41;5075863;28;20570;-71
2022/06/09 09:32:19;;;;;;;11.57;10.25;;;;;;;21.91;65.00;94150.38;5076393;28;20213;-71
2022/06/09 09:34:48;;;;;;;11.02;9.93;;;;;;;21.98;62.99;94139.69;5075863;28;20262;-71
2022/06/09 09:37:21;;;;;;;11.60;9.65;;;;;;;22.02;63.18;94133.97;5075577;28;20255;-71
2022/06/09 09:39:50;;;;;;;10.95;9.95;;;;;;;22.03;63.88;94135.53;5076848;28;20575;-71
2022/06/09 09:42:21;;;;;;;10.57;9.60;;;;;;;22.01;61.81;94133.19;5075342;28;20292;-71
2022/06/09 09:45:05;;;;;;;12.25;11.05;;;;;;;22.00;61.99;94137.22;5075746;28;20185;-71
2022/06/09 09:47:33;;;;;;;12.63;11.27;;;;;;;22.01;59.74;94129.59;5075492;28;20212;-72
2022/06/09 09:50:06;;;;;;;11.55;10.32;;;;;;;22.04;60.76;94123.06;5076405;28;20189;-71
2022/06/09 09:52:39;;;;;;;10.77;9.77;;;;;;;22.13;60.33;94120.38;5076372;28;20219;-71
2022/06/09 09:55:25;;;;;;;12.15;9.85;;;;;;;22.21;63.17;94115.34;5076466;28;20189;-71
2022/06/09 09:58:13;;;;;;;10.63;9.50;;;;;;;22.29;60.88;94108.25;5076141;28;20268;-71
2022/06/09 10:00:41;;;;;;;11.40;9.80;;;;;;;22.45;62.91;94110.91;5074751;28;20514;-71
2022/06/09 10:08:42;;;;;;;10.60;9.18;;;;;;;22.57;58.94;94110.09;5074865;28;20192;-71
2022/06/09 10:14:02;;;;;;;9.40;8.57;;;;;;;22.50;60.42;94101.13;5074657;28;20217;-71
2022/06/09 10:16:32;;;;;;;9.73;8.65;;;;;;;22.57;59.23;94095.25;5074656;28;20197;-71
2022/06/09 10:19:02;;;;;;;9.07;8.20;;;;;;;22.65;59.48;94101.41;5074574;28;20208;-71
2022/06/09 10:21:29;;;;;;;10.05;8.88;;;;;;;22.71;57.54;94097.56;5075364;28;20192;-71
2022/06/09 10:23:58;;;;;;;9.60;8.68;;;;;;;22.77;58.95;94092.16;5075257;28;20237;-71
2022/06/09 10:26:29;;;;;;;9.77;7.60;;;;;;;22.87;57.81;94082.53;5074405;28;20572;-71
2022/06/09 10:29:00;;;;;;;11.70;9.32;;;;;;;23.00;59.49;94085.34;5075035;28;20239;-71
2022/06/09 10:31:36;;;;;;;10.65;8.65;;;;;;;22.98;57.52;94077.34;5073771;28;20201;-71
2022/06/09 10:34:11;;;;;;;11.73;8.82;;;;;;;23.00;57.82;94079.72;5075637;28;20228;-71
2022/06/09 10:36:42;;;;;;;9.65;8.68;;;;;;;23.21;58.14;94078.94;5075289;28;20200;-71
2022/06/09 10:39:14;;;;;;;10.18;9.18;;;;;;;23.39;57.00;94083.88;5074316;28;20189;-71
2022/06/09 10:41:45;;;;;;;10.25;9.18;;;;;;;23.42;55.78;94077.34;5075197;28;20181;-71
2022/06/09 10:44:15;;;;;;;10.77;9.73;;;;;;;23.48;55.03;94081.13;5075192;28;20177;-71
2022/06/09 10:55:14;;;;;;;11.98;9.77;;;;;;;23.54;56.22;94070.06;5074237;28;20223;-71
2022/06/09 10:55:26;;;;;;;11.30;10.20;;;;;;;23.73;53.79;94076.59;5074567;28;20182;-71
2022/06/09 10:57:58;;;;;;;9.65;8.82;;;;;;;23.70;54.64;94063.44;5074732;28;20191;-71
2022/06/09 11:00:28;;;;;;;8.93;8.02;;;;;;;23.76;53.58;94064.41;5073955;28;20208;-71
2022/06/09 11:03:00;;;;;;;9.73;8.73;;;;;;;23.85;53.17;94063.66;5075125;28;20549;-71
2022/06/09 11:05:52;;;;;;;9.38;8.23;;;;;;;23.98;55.86;94059.47;5073970;28;20291;-71
2022/06/09 11:08:23;;;;;;;10.77;8.88;;;;;;;24.07;55.03;94069.19;5074463;28;20239;-71
2022/06/09 11:10:56;;;;;;;9.65;8.77;;;;;;;23.94;52.67;94058.06;5074136;28;20204;-71
2022/06/09 11:13:40;;;;;;;8.43;7.70;;;;;;;23.99;54.77;94046.16;5073655;28;20221;-71
2022/06/09 11:16:13;;;;;;;9.68;8.52;;;;;;;24.05;53.96;94041.50;5074416;28;20217;-71
2022/06/09 11:18:48;;;;;;;8.45;7.55;;;;;;;23.85;51.98;94052.38;5075115;28;20266;-71
2022/06/09 11:21:21;;;;;;;9.30;8.40;;;;;;;23.59;53.58;94049.75;5074788;28;20208;-71
2022/06/09 11:23:57;;;;;;;9.35;8.40;;;;;;;23.41;53.19;94050.44;5073672;28;20688;-71
2022/06/09 11:26:29;;;;;;;10.52;7.97;;;;;;;23.28;53.20;94044.91;5073431;28;20620;-71
2022/06/09 11:29:03;;;;;;;8.52;7.63;;;;;;;23.16;53.46;94039.34;5074775;28;20213;-71
2022/06/09 11:31:50;;;;;;;8.68;7.90;;;;;;;23.12;52.70;94041.53;5074368;28;20173;-71
2022/06/09 11:34:43;;;;;;;8.40;7.60;;;;;;;23.37;53.70;94032.13;5074113;28;20251;-71
2022/06/09 11:37:21;;;;;;;8.13;7.43;;;;;;;23.35;52.17;94031.78;5073763;28;20194;-72
2022/06/09 11:39:57;;;;;;;7.43;6.60;;;;;;;23.29;52.88;94021.16;5074618;28;20200;-72
2022/06/09 11:42:34;;;;;;;7.00;6.30;;;;;;;23.41;52.34;94011.03;5076866;28;20177;-71
2022/06/09 11:45:05;;;;;;;8.38;7.57;;;;;;;23.68;54.29;94009.66;5078288;28;20215;-71
2022/06/09 11:47:34;;;;;;;8.40;6.82;;;;;;;23.89;53.64;93997.47;5077095;28;20530;-73
2022/06/09 11:50:06;;;;;;;8.77;6.93;;;;;;;23.85;53.30;94005.28;5077396;28;20200;-71
2022/06/09 11:52:39;;;;;;;7.95;6.60;;;;;;;23.73;53.56;94003.38;5077007;28;20201;-71
2022/06/09 11:55:20;;;;;;;7.72;6.80;;;;;;;23.60;54.38;93999.88;5078186;28;20185;-71
2022/06/09 11:57:48;;;;;;;9.15;7.40;;;;;;;23.46;53.66;94006.88;5078118;28;20177;-71